Terminal Aerodrome Forecast
Issued by NWS

Home | Current Version | Previous Version | Text Only | Print | Product List | Glossary On
Versions: 1 2 3 4 5 6 7 8 9 10 11 12 13 14 15 16 17 18 19 20 21 22 23 24
000
FTUS43 KDLH 020939 AAD
TAFHIB
TAF AMD
KHIB 020939Z 0210/0306 00000KT 3SM BR SCT050 SCT250
      TEMPO 0210/0212 1SM BR
     FM021200 22004KT P6SM SCT050
     FM021500 25007KT P6SM VCSH SCT030 BKN050
     FM021800 25006KT P6SM SCT050 BKN250
     FM030000 21005KT P6SM BKN250=

USA.gov is the U.S. government's official web portal to all federal, state and local government web resources and services.